createdAt,value
2022-08-23T00:02:24.721Z,2.97
2022-08-23T00:05:07.535Z,2.78
2022-08-23T00:07:39.113Z,3.05
2022-08-23T00:10:08.601Z,2.42
2022-08-23T00:12:35.243Z,2.70
2022-08-23T00:15:01.958Z,2.67
2022-08-23T00:17:34.441Z,2.85
2022-08-23T00:20:06.517Z,2.50
2022-08-23T00:22:33.462Z,2.10
2022-08-23T00:25:00.126Z,2.10
2022-08-23T00:27:27.365Z,2.33
2022-08-23T00:29:55.400Z,2.10
2022-08-23T00:32:30.521Z,2.15
2022-08-23T00:34:58.715Z,2.85
2022-08-23T00:37:26.396Z,2.78
2022-08-23T00:39:53.290Z,3.25
2022-08-23T00:43:03.123Z,2.88
2022-08-23T00:45:56.079Z,3.25
2022-08-23T00:48:23.082Z,2.95
2022-08-23T00:51:05.548Z,2.95
2022-08-23T00:53:35.167Z,2.67
2022-08-23T00:56:03.719Z,2.28
2022-08-23T00:58:30.688Z,2.50
2022-08-23T01:00:58.863Z,2.10
2022-08-23T01:03:27.536Z,2.25
2022-08-23T01:06:10.884Z,2.50
2022-08-23T01:08:38.916Z,2.10
2022-08-23T01:11:28.183Z,2.30
2022-08-23T01:14:01.820Z,2.25
2022-08-23T01:16:34.229Z,2.50
2022-08-23T01:19:02.627Z,2.40
2022-08-23T01:21:33.539Z,2.40
2022-08-23T01:24:03.567Z,2.40
2022-08-23T01:26:35.327Z,2.55
2022-08-23T01:29:04.921Z,2.30
2022-08-23T01:31:31.835Z,2.80
2022-08-23T01:34:02.230Z,3.35
2022-08-23T01:36:30.479Z,3.50
2022-08-23T01:38:57.491Z,2.92
2022-08-23T01:41:24.766Z,2.53
2022-08-23T01:43:52.516Z,2.70
2022-08-23T01:46:22.536Z,2.95
2022-08-23T01:48:55.180Z,3.22
2022-08-23T01:51:23.919Z,3.05
2022-08-23T01:59:08.576Z,3.03
2022-08-23T02:01:40.682Z,2.72
2022-08-23T02:04:07.531Z,2.70
2022-08-23T02:06:34.449Z,2.85
2022-08-23T02:09:03.606Z,2.60
2022-08-23T02:11:37.231Z,3.22
2022-08-23T02:14:10.227Z,3.00
2022-08-23T02:17:03.084Z,3.55
2022-08-23T02:19:33.620Z,3.38
2022-08-23T02:22:03.096Z,3.97
2022-08-23T02:24:31.516Z,3.58
2022-08-23T02:27:02.577Z,3.20
2022-08-23T02:29:31.181Z,3.00
2022-08-23T02:32:01.903Z,2.92
2022-08-23T02:34:36.426Z,2.80
2022-08-23T02:37:03.267Z,2.15
2022-08-23T02:39:30.368Z,2.63
2022-08-23T02:41:57.560Z,2.83
2022-08-23T02:44:24.675Z,2.83
2022-08-23T02:46:51.664Z,3.45
2022-08-23T02:49:18.636Z,3.30
2022-08-23T02:51:46.061Z,3.13
2022-08-23T02:54:12.959Z,3.22
2022-08-23T02:56:40.000Z,3.67
2022-08-23T02:59:07.386Z,2.97
2022-08-23T03:01:36.796Z,2.80
2022-08-23T03:04:16.311Z,3.00
2022-08-23T03:06:43.144Z,2.90
2022-08-23T03:09:10.010Z,3.47
2022-08-23T03:11:37.397Z,3.15
2022-08-23T03:14:04.168Z,2.92
2022-08-23T03:16:30.821Z,2.97
2022-08-23T03:18:58.099Z,2.92
2022-08-23T03:21:24.831Z,3.00
2022-08-23T03:23:51.981Z,3.30
2022-08-23T03:26:18.776Z,3.30
2022-08-23T03:28:46.323Z,3.22
2022-08-23T03:31:15.616Z,3.20
2022-08-23T03:33:51.518Z,2.50
2022-08-23T03:36:19.052Z,2.78
2022-08-23T03:38:56.066Z,3.10
2022-08-23T03:43:50.551Z,3.03
2022-08-23T03:46:24.411Z,3.50
2022-08-23T03:48:59.451Z,3.10
2022-08-23T03:51:29.432Z,3.15
2022-08-23T03:53:58.000Z,3.40
2022-08-23T03:56:34.453Z,3.28
2022-08-23T03:59:04.959Z,4.30
2022-08-23T04:01:32.085Z,3.30
2022-08-23T04:04:00.137Z,3.30
2022-08-23T04:06:29.262Z,3.17
2022-08-23T04:08:56.205Z,3.55
2022-08-23T04:11:23.582Z,3.58
2022-08-23T04:13:57.356Z,3.72
2022-08-23T04:16:24.016Z,3.47
2022-08-23T04:18:50.795Z,3.53
2022-08-23T04:21:22.435Z,3.70
2022-08-23T04:23:49.562Z,3.40
2022-08-23T04:26:16.227Z,3.30
2022-08-23T04:28:43.896Z,3.25
2022-08-23T04:31:11.121Z,3.28
2022-08-23T04:33:40.671Z,3.00
2022-08-23T04:36:09.494Z,3.05
2022-08-23T04:38:36.796Z,3.53
2022-08-23T04:41:24.382Z,3.30
2022-08-23T04:43:54.488Z,3.72
2022-08-23T04:46:21.195Z,3.42
2022-08-23T04:48:49.045Z,3.78
2022-08-23T04:51:17.655Z,3.47
2022-08-23T04:53:44.343Z,3.08
2022-08-23T04:56:30.139Z,2.90
2022-08-23T04:58:56.870Z,3.30
2022-08-23T05:01:25.590Z,3.92
2022-08-23T05:03:55.407Z,4.05
2022-08-23T05:06:24.971Z,3.55
2022-08-23T05:11:18.969Z,3.60
2022-08-23T05:13:46.648Z,3.60
2022-08-23T05:16:14.114Z,3.10
2022-08-23T05:18:48.986Z,2.97
2022-08-23T05:21:20.729Z,3.40
2022-08-23T05:23:51.033Z,3.10
2022-08-23T05:26:23.477Z,2.78
2022-08-23T05:28:50.601Z,3.47
2022-08-23T05:31:27.666Z,2.90
2022-08-23T05:33:59.527Z,3.20
2022-08-23T05:36:48.359Z,3.33
2022-08-23T05:39:30.384Z,3.30
2022-08-23T05:42:08.429Z,2.72
2022-08-23T05:44:36.756Z,2.60
2022-08-23T05:47:11.413Z,3.25
2022-08-23T05:49:46.833Z,2.80
2022-08-23T05:52:14.220Z,2.88
2022-08-23T05:54:42.992Z,3.20
2022-08-23T05:57:24.540Z,3.25
2022-08-23T05:59:51.152Z,3.20
2022-08-23T06:02:17.744Z,3.25
2022-08-23T06:04:44.653Z,3.10
2022-08-23T06:07:11.787Z,2.83
2022-08-23T06:09:39.041Z,3.05
2022-08-23T06:12:05.796Z,3.17
2022-08-23T06:14:32.831Z,2.72
2022-08-23T06:16:59.833Z,2.63
2022-08-23T06:19:28.021Z,2.70
2022-08-23T06:22:15.730Z,2.70
2022-08-23T06:24:42.910Z,2.78
2022-08-23T06:27:15.101Z,3.20
2022-08-23T06:29:42.070Z,2.60
2022-08-23T06:32:43.749Z,2.58
2022-08-23T06:35:39.090Z,2.90
2022-08-23T06:38:21.708Z,2.80
2022-08-23T06:41:11.684Z,3.17
2022-08-23T06:43:49.459Z,2.70
2022-08-23T06:46:23.648Z,2.78
2022-08-23T06:48:51.203Z,2.47
2022-08-23T06:51:41.583Z,2.38
2022-08-23T06:54:26.502Z,2.55
2022-08-23T06:57:22.788Z,2.50
2022-08-23T07:00:20.162Z,2.67
2022-08-23T07:03:20.976Z,2.72
2022-08-23T07:06:10.260Z,3.47
2022-08-23T07:08:37.587Z,2.47
2022-08-23T07:11:04.679Z,2.42
2022-08-23T07:13:31.589Z,2.50
2022-08-23T07:15:59.355Z,2.35
2022-08-23T07:18:26.842Z,2.13
2022-08-23T07:23:26.385Z,2.53
2022-08-23T07:25:53.736Z,2.50
2022-08-23T07:28:23.505Z,2.28
2022-08-23T07:30:50.632Z,2.20
2022-08-23T07:33:18.242Z,1.95
2022-08-23T07:36:16.441Z,2.00
2022-08-23T07:38:45.447Z,2.28
2022-08-23T07:41:13.316Z,2.35
2022-08-23T07:43:40.119Z,1.95
2022-08-23T07:48:53.058Z,2.65
2022-08-23T07:51:26.448Z,2.20
2022-08-23T07:53:53.588Z,2.50
2022-08-23T07:56:21.830Z,2.15
2022-08-23T07:59:05.271Z,2.35
2022-08-23T08:01:51.935Z,2.55
2022-08-23T08:04:19.064Z,2.33
2022-08-23T08:07:04.788Z,1.90
2022-08-23T08:09:39.213Z,2.10
2022-08-23T08:12:06.150Z,2.10
2022-08-23T08:14:32.753Z,2.17
2022-08-23T08:17:03.521Z,2.25
2022-08-23T08:19:59.265Z,2.00
2022-08-23T08:22:34.857Z,2.10
2022-08-23T08:25:20.099Z,2.42
2022-08-23T08:27:49.238Z,2.17
2022-08-23T08:30:16.187Z,2.30
2022-08-23T08:32:47.261Z,3.00
2022-08-23T08:35:14.438Z,2.03
2022-08-23T08:37:41.169Z,2.00
2022-08-23T08:40:09.186Z,2.17
2022-08-23T08:42:51.891Z,2.40
2022-08-23T08:45:23.505Z,2.17
2022-08-23T08:47:58.095Z,3.05
2022-08-23T08:50:36.681Z,2.20
2022-08-23T08:53:51.480Z,1.88
2022-08-23T08:56:35.292Z,1.80
2022-08-23T08:59:22.384Z,1.98
2022-08-23T09:01:49.227Z,1.80
2022-08-23T09:04:22.765Z,1.98
2022-08-23T09:06:49.417Z,2.00
2022-08-23T09:09:30.820Z,1.80
2022-08-23T09:12:19.398Z,1.70
2022-08-23T09:15:02.183Z,1.77
2022-08-23T09:17:35.333Z,1.77
2022-08-23T09:20:04.721Z,1.70
2022-08-23T09:22:54.880Z,2.13
2022-08-23T09:25:27.660Z,1.63
2022-08-23T09:28:02.392Z,1.55
2022-08-23T09:30:55.331Z,1.85
2022-08-23T09:33:27.164Z,1.67
2022-08-23T09:36:15.129Z,1.70
2022-08-23T09:38:57.768Z,1.48
2022-08-23T09:41:43.572Z,1.58
2022-08-23T09:44:13.850Z,1.65
2022-08-23T09:46:43.476Z,1.60
2022-08-23T09:49:26.857Z,1.70
2022-08-23T09:52:00.972Z,1.58
2022-08-23T09:54:34.226Z,2.20
2022-08-23T09:57:05.910Z,1.75
2022-08-23T09:59:46.894Z,1.60
2022-08-23T10:02:21.297Z,1.80
2022-08-23T10:05:28.191Z,2.17
2022-08-23T10:08:00.577Z,1.88
2022-08-23T10:10:32.928Z,1.60
2022-08-23T10:13:04.023Z,1.77
2022-08-23T10:15:57.192Z,2.00
2022-08-23T10:18:59.728Z,2.22
2022-08-23T10:21:39.967Z,1.60
2022-08-23T10:24:20.747Z,2.00
2022-08-23T10:27:04.283Z,1.90
2022-08-23T10:29:38.473Z,1.73
2022-08-23T10:32:08.902Z,2.17
2022-08-23T10:35:11.919Z,1.65
2022-08-23T10:38:17.581Z,1.55
2022-08-23T10:41:03.495Z,1.60
2022-08-23T10:43:39.388Z,1.55
2022-08-23T10:46:07.725Z,1.70
2022-08-23T10:48:57.947Z,1.80
2022-08-23T10:51:35.043Z,2.00
2022-08-23T10:54:06.396Z,1.80
2022-08-23T10:56:34.183Z,1.67
2022-08-23T11:02:14.389Z,1.40
2022-08-23T11:05:18.244Z,1.70
2022-08-23T11:07:58.723Z,2.00
2022-08-23T11:10:41.713Z,1.70
2022-08-23T11:13:26.067Z,2.50
2022-08-23T11:16:21.043Z,1.77
2022-08-23T11:18:50.143Z,1.70
2022-08-23T11:21:24.875Z,1.92
2022-08-23T11:23:59.358Z,2.05
2022-08-23T11:26:29.447Z,1.60
2022-08-23T11:29:21.907Z,1.65
2022-08-23T11:32:13.722Z,1.90
2022-08-23T11:34:48.454Z,2.00
2022-08-23T11:37:22.043Z,1.85
2022-08-23T11:39:57.446Z,1.90
2022-08-23T11:42:50.129Z,1.88
2022-08-23T11:45:35.710Z,1.77
2022-08-23T11:48:29.435Z,1.63
2022-08-23T11:51:15.220Z,1.77
2022-08-23T11:53:53.919Z,1.80
2022-08-23T11:56:45.644Z,2.00
2022-08-23T11:59:38.456Z,2.10
2022-08-23T12:02:50.193Z,1.60
2022-08-23T12:05:22.608Z,2.00
2022-08-23T12:08:01.882Z,2.00
2022-08-23T12:10:52.199Z,1.70
2022-08-23T12:13:19.430Z,1.70
2022-08-23T12:16:22.670Z,1.70
2022-08-23T12:18:49.382Z,1.83
2022-08-23T12:21:34.135Z,1.50
2022-08-23T12:24:13.554Z,1.70
2022-08-23T12:27:07.533Z,1.90
2022-08-23T12:29:57.347Z,1.92
2022-08-23T12:32:51.882Z,2.00
2022-08-23T12:35:30.380Z,1.98
2022-08-23T12:38:26.166Z,1.48
2022-08-23T12:40:54.640Z,1.70
2022-08-23T12:43:26.124Z,1.98
2022-08-23T12:45:58.591Z,1.95
2022-08-23T12:48:30.864Z,1.80
2022-08-23T12:51:08.685Z,1.65
2022-08-23T12:53:44.766Z,2.30
2022-08-23T12:56:19.380Z,1.73
2022-08-23T12:58:52.723Z,2.13
2022-08-23T13:04:14.266Z,1.80
2022-08-23T13:06:56.590Z,2.20
2022-08-23T13:09:33.338Z,1.77
2022-08-23T13:12:00.691Z,1.63
2022-08-23T13:17:26.029Z,1.83
2022-08-23T13:19:59.048Z,1.90
2022-08-23T13:22:26.130Z,1.80
2022-08-23T13:25:28.689Z,2.13
2022-08-23T13:27:56.949Z,1.88
2022-08-23T13:30:36.375Z,2.30
2022-08-23T13:33:07.780Z,1.60
2022-08-23T13:35:38.369Z,1.80
2022-08-23T13:38:08.029Z,1.80
2022-08-23T13:40:57.058Z,1.70
2022-08-23T13:43:44.658Z,1.80
2022-08-23T13:46:17.818Z,2.10
2022-08-23T13:49:10.549Z,1.63
2022-08-23T13:51:42.647Z,1.70
2022-08-23T13:54:11.651Z,2.25
2022-08-23T13:56:42.727Z,1.80
2022-08-23T13:59:26.869Z,1.92
2022-08-23T14:02:04.403Z,1.80
2022-08-23T14:04:31.046Z,1.75
2022-08-23T14:06:57.636Z,1.98
2022-08-23T14:09:24.262Z,1.60
2022-08-23T14:11:54.822Z,1.70
2022-08-23T14:14:21.507Z,2.30
2022-08-23T14:16:48.381Z,1.73
2022-08-23T14:19:16.845Z,1.98
2022-08-23T14:22:02.450Z,1.75
2022-08-23T14:24:29.151Z,1.95
2022-08-23T14:26:56.624Z,2.13
2022-08-23T14:29:25.310Z,1.70
2022-08-23T14:31:52.434Z,1.95
2022-08-23T14:34:19.928Z,1.90
2022-08-23T14:39:33.595Z,1.90
2022-08-23T14:42:00.335Z,1.77
2022-08-23T14:44:31.624Z,1.73
2022-08-23T14:47:00.170Z,1.90
2022-08-23T14:49:26.743Z,1.60
2022-08-23T14:51:53.532Z,2.10
2022-08-23T14:54:23.485Z,2.00
2022-08-23T14:56:50.649Z,2.00
2022-08-23T15:01:44.027Z,2.08
2022-08-23T15:04:12.069Z,1.80
2022-08-23T15:06:54.996Z,1.80
2022-08-23T15:09:27.750Z,1.90
2022-08-23T15:14:41.553Z,2.05
2022-08-23T15:17:08.145Z,1.63
2022-08-23T15:19:35.395Z,1.90
2022-08-23T15:22:21.704Z,1.73
2022-08-23T15:24:49.367Z,1.88
2022-08-23T15:27:16.711Z,2.30
2022-08-23T15:29:43.295Z,1.60
2022-08-23T15:32:11.005Z,2.00
2022-08-23T15:34:40.208Z,1.95
2022-08-23T15:37:12.895Z,1.70
2022-08-23T15:39:39.471Z,2.17
2022-08-23T15:42:06.754Z,1.65
2022-08-23T15:49:29.294Z,1.67
2022-08-23T15:51:58.381Z,1.85
2022-08-23T15:54:24.977Z,1.80
2022-08-23T15:56:53.244Z,1.80
2022-08-23T15:59:21.601Z,2.30
2022-08-23T16:01:48.218Z,1.80
2022-08-23T16:04:14.802Z,1.77
2022-08-23T16:06:42.106Z,2.00
2022-08-23T16:11:40.632Z,1.60
2022-08-23T16:14:07.280Z,1.63
2022-08-23T16:16:37.395Z,1.73
2022-08-23T16:19:07.403Z,2.10
2022-08-23T16:21:37.293Z,1.70
2022-08-23T16:24:04.947Z,2.00
2022-08-23T16:26:35.071Z,1.58
2022-08-23T16:29:04.781Z,1.73
2022-08-23T16:31:37.466Z,1.85
2022-08-23T16:34:08.787Z,1.65
2022-08-23T16:36:35.635Z,1.67
2022-08-23T16:39:03.385Z,1.90
2022-08-23T16:41:30.144Z,1.80
2022-08-23T16:43:56.869Z,1.50
2022-08-23T16:46:24.060Z,1.70
2022-08-23T16:51:17.871Z,2.03
2022-08-23T16:53:44.527Z,1.95
2022-08-23T16:56:22.222Z,1.63
2022-08-23T16:58:49.295Z,1.92
2022-08-23T17:01:19.504Z,2.30
2022-08-23T17:03:46.444Z,1.80
2022-08-23T17:06:13.153Z,1.80
2022-08-23T17:08:39.729Z,1.98
2022-08-23T17:11:07.891Z,1.90
2022-08-23T17:13:34.937Z,1.83
2022-08-23T17:16:01.789Z,1.92
2022-08-23T17:18:28.384Z,1.92
2022-08-23T17:20:54.962Z,1.75
2022-08-23T17:23:22.166Z,1.90
2022-08-23T17:25:48.888Z,5.18
2022-08-23T17:28:17.308Z,2.83
2022-08-23T17:30:44.130Z,2.33
2022-08-23T17:33:10.775Z,1.98
2022-08-23T17:35:39.267Z,2.00
2022-08-23T17:38:06.160Z,2.15
2022-08-23T17:40:36.179Z,1.80
2022-08-23T17:43:03.481Z,2.03
2022-08-23T17:47:58.237Z,2.00
2022-08-23T17:50:25.342Z,2.20
2022-08-23T17:52:52.010Z,1.77
2022-08-23T17:55:19.311Z,2.03
2022-08-23T17:57:48.357Z,1.80
2022-08-23T18:00:18.088Z,1.90
2022-08-23T18:02:44.783Z,2.17
2022-08-23T18:05:11.929Z,2.10
2022-08-23T18:07:39.106Z,2.10
2022-08-23T18:10:07.344Z,1.80
2022-08-23T18:12:34.288Z,1.95
2022-08-23T18:15:04.136Z,1.92
2022-08-23T18:17:31.581Z,1.83
2022-08-23T18:19:59.274Z,2.40
2022-08-23T18:22:26.238Z,1.83
2022-08-23T18:24:53.169Z,2.30
2022-08-23T18:27:38.365Z,2.13
2022-08-23T18:30:08.531Z,2.10
2022-08-23T18:32:35.426Z,1.98
2022-08-23T18:35:02.553Z,1.95
2022-08-23T18:37:29.333Z,2.00
2022-08-23T18:39:55.934Z,2.20
2022-08-23T18:42:22.566Z,1.98
2022-08-23T18:44:49.171Z,2.40
2022-08-23T18:47:15.824Z,2.50
2022-08-23T18:49:42.576Z,2.53
2022-08-23T18:52:09.749Z,2.00
2022-08-23T18:54:36.826Z,2.15
2022-08-23T18:57:03.857Z,2.38
2022-08-23T18:59:30.796Z,2.20
2022-08-23T19:01:57.490Z,2.33
2022-08-23T19:04:24.295Z,2.40
2022-08-23T19:06:52.791Z,2.40
2022-08-23T19:09:21.794Z,2.50
2022-08-23T19:11:48.834Z,2.40
2022-08-23T19:14:15.861Z,2.55
2022-08-23T19:16:47.454Z,2.38
2022-08-23T19:19:15.367Z,2.20
2022-08-23T19:21:42.027Z,2.58
2022-08-23T19:24:09.011Z,2.60
2022-08-23T19:26:36.237Z,2.33
2022-08-23T19:29:06.240Z,2.22
2022-08-23T19:31:38.356Z,2.80
2022-08-23T19:34:07.868Z,2.60
2022-08-23T19:36:58.092Z,2.53
2022-08-23T19:41:48.594Z,3.10
2022-08-23T19:46:44.606Z,2.47
2022-08-23T19:49:12.779Z,2.30
2022-08-23T19:51:39.813Z,2.58
2022-08-23T19:54:11.703Z,3.15
2022-08-23T19:56:45.779Z,3.13
2022-08-23T19:59:15.167Z,2.70
2022-08-23T20:01:41.873Z,2.78
2022-08-23T20:04:08.726Z,2.92
2022-08-23T20:06:35.637Z,2.90
2022-08-23T20:09:04.048Z,2.90
2022-08-23T20:11:32.331Z,3.05
2022-08-23T20:14:00.213Z,2.80
2022-08-23T20:16:27.926Z,3.00
2022-08-23T20:18:55.314Z,3.15
2022-08-23T20:21:23.824Z,2.78
2022-08-23T20:24:04.264Z,2.70
2022-08-23T20:29:10.134Z,3.08
2022-08-23T20:31:39.763Z,2.80
2022-08-23T20:34:09.336Z,3.10
2022-08-23T20:36:35.969Z,2.90
2022-08-23T20:39:02.822Z,3.00
2022-08-23T20:41:32.713Z,2.90
2022-08-23T20:44:00.516Z,2.83
2022-08-23T20:46:27.294Z,3.22
2022-08-23T20:48:57.309Z,2.70
2022-08-23T20:51:25.765Z,2.50
2022-08-23T20:53:52.799Z,3.20
2022-08-23T20:56:20.281Z,2.60
2022-08-23T20:58:47.247Z,3.13
2022-08-23T21:01:15.787Z,2.78
2022-08-23T21:03:42.680Z,2.85
2022-08-23T21:06:21.786Z,3.00
2022-08-23T21:08:54.177Z,2.88
2022-08-23T21:11:21.984Z,2.90
2022-08-23T21:13:48.738Z,2.60
2022-08-23T21:16:16.586Z,2.75
2022-08-23T21:18:43.706Z,2.58
2022-08-23T21:21:10.893Z,2.83
2022-08-23T21:23:38.137Z,2.53
2022-08-23T21:26:05.804Z,2.88
2022-08-23T21:28:32.902Z,2.70
2022-08-23T21:31:14.572Z,2.53
2022-08-23T21:33:42.056Z,3.20
2022-08-23T21:36:12.817Z,2.70
2022-08-23T21:38:40.001Z,2.63
2022-08-23T21:41:09.327Z,3.00
2022-08-23T21:43:39.398Z,2.67
2022-08-23T21:46:07.217Z,2.70
2022-08-23T21:48:34.512Z,2.50
2022-08-23T21:51:01.638Z,2.72
2022-08-23T21:53:28.268Z,2.58
2022-08-23T21:55:55.021Z,2.70
2022-08-23T21:58:21.647Z,2.70
2022-08-23T22:00:48.304Z,2.85
2022-08-23T22:03:15.163Z,2.40
2022-08-23T22:05:44.057Z,2.78
2022-08-23T22:08:14.517Z,2.50
2022-08-23T22:10:50.183Z,2.63
2022-08-23T22:13:26.182Z,3.13
2022-08-23T22:15:52.818Z,2.50
2022-08-23T22:18:19.595Z,2.67
2022-08-23T22:20:46.500Z,2.78
2022-08-23T22:23:13.134Z,2.90
2022-08-23T22:25:39.792Z,2.50
2022-08-23T22:28:06.468Z,2.88
2022-08-23T22:30:33.083Z,3.03
2022-08-23T22:32:59.752Z,2.80
2022-08-23T22:35:26.331Z,2.85
2022-08-23T22:38:12.798Z,2.60
2022-08-23T22:40:40.605Z,2.67
2022-08-23T22:43:07.992Z,2.60
2022-08-23T22:45:34.578Z,2.83
2022-08-23T22:48:01.416Z,2.85
2022-08-23T22:50:28.373Z,2.85
2022-08-23T22:52:54.922Z,3.53
2022-08-23T22:55:21.556Z,2.47
2022-08-23T22:57:48.150Z,3.97
2022-08-23T23:00:16.166Z,3.20
2022-08-23T23:02:43.000Z,2.88
2022-08-23T23:05:09.559Z,3.22
2022-08-23T23:07:54.758Z,3.33
2022-08-23T23:10:21.306Z,3.28
2022-08-23T23:12:47.972Z,3.22
2022-08-23T23:15:14.757Z,3.35
2022-08-23T23:17:41.724Z,3.13
2022-08-23T23:20:28.545Z,3.03
2022-08-23T23:22:55.231Z,3.15
2022-08-23T23:25:21.945Z,3.35
2022-08-23T23:27:48.599Z,3.17
2022-08-23T23:30:15.229Z,3.05
2022-08-23T23:32:43.181Z,3.50
2022-08-23T23:35:10.567Z,3.25
2022-08-23T23:37:37.719Z,3.42
2022-08-23T23:40:05.962Z,3.45
2022-08-23T23:42:32.994Z,3.72
2022-08-23T23:44:59.858Z,4.05
2022-08-23T23:47:26.796Z,3.72
2022-08-23T23:49:53.435Z,3.83
2022-08-23T23:52:20.518Z,3.58
2022-08-23T23:54:47.099Z,3.60
2022-08-23T23:57:14.263Z,3.80
2022-08-23T23:59:41.255Z,3.88
